createdAt,value
2018-08-13T00:00:51.977Z,18.20
2018-08-13T00:03:20.656Z,18.20
2018-08-13T00:05:48.792Z,18.20
2018-08-13T00:08:17.702Z,18.10
2018-08-13T00:10:45.997Z,18.10
2018-08-13T00:13:14.856Z,18.10
2018-08-13T00:15:43.049Z,18.00
2018-08-13T00:18:12.923Z,18.00
2018-08-13T00:20:41.566Z,18.00
2018-08-13T00:23:09.805Z,18.00
2018-08-13T00:25:37.993Z,18.00
2018-08-13T00:28:08.167Z,17.90
2018-08-13T00:30:36.919Z,17.90
2018-08-13T00:33:06.703Z,17.90
2018-08-13T00:35:34.929Z,17.90
2018-08-13T00:38:03.678Z,17.80
2018-08-13T00:40:32.377Z,17.80
2018-08-13T00:43:00.837Z,17.80
2018-08-13T00:45:29.021Z,17.80
2018-08-13T00:47:57.769Z,17.80
2018-08-13T00:50:25.985Z,17.70
2018-08-13T00:52:55.093Z,17.70
2018-08-13T00:55:23.378Z,17.70
2018-08-13T00:57:51.922Z,17.70
2018-08-13T01:00:21.249Z,17.70
2018-08-13T01:02:50.322Z,17.60
2018-08-13T01:05:20.216Z,17.70
2018-08-13T01:07:49.277Z,17.60
2018-08-13T01:10:20.787Z,17.60
2018-08-13T01:12:49.580Z,17.50
2018-08-13T01:15:19.405Z,17.60
2018-08-13T01:17:48.999Z,17.50
2018-08-13T01:20:18.553Z,17.50
2018-08-13T01:22:46.715Z,17.50
2018-08-13T01:25:16.592Z,17.40
2018-08-13T01:27:45.195Z,17.50
2018-08-13T01:30:14.913Z,17.40
2018-08-13T01:32:43.566Z,17.40
2018-08-13T01:35:12.206Z,17.40
2018-08-13T01:37:40.332Z,17.40
2018-08-13T01:40:10.591Z,17.40
2018-08-13T01:42:38.892Z,17.40
2018-08-13T01:45:09.705Z,17.40
2018-08-13T01:47:38.917Z,17.30
2018-08-13T01:50:10.540Z,17.30
2018-08-13T01:52:39.427Z,17.30
2018-08-13T01:55:08.724Z,17.20
2018-08-13T01:57:37.717Z,17.30
2018-08-13T02:00:09.156Z,17.20
2018-08-13T02:02:37.446Z,17.20
2018-08-13T02:05:06.126Z,17.20
2018-08-13T02:07:34.512Z,17.10
2018-08-13T02:10:02.738Z,17.10
2018-08-13T02:12:30.905Z,17.10
2018-08-13T02:14:59.029Z,17.20
2018-08-13T02:17:27.102Z,17.20
2018-08-13T02:19:55.378Z,17.20
2018-08-13T02:22:23.581Z,17.20
2018-08-13T02:24:53.385Z,17.20
2018-08-13T02:27:22.463Z,17.20
2018-08-13T02:29:50.685Z,17.20
2018-08-13T02:32:19.406Z,17.20
2018-08-13T02:34:48.118Z,17.20
2018-08-13T02:37:16.837Z,17.20
2018-08-13T02:39:46.080Z,17.20
2018-08-13T02:42:14.469Z,17.20
2018-08-13T02:44:42.713Z,17.20
2018-08-13T02:47:10.833Z,17.20
2018-08-13T02:49:39.049Z,17.20
2018-08-13T02:52:07.173Z,17.20
2018-08-13T02:54:35.407Z,17.20
2018-08-13T02:57:04.090Z,17.20
2018-08-13T02:59:32.769Z,17.10
2018-08-13T03:02:01.434Z,17.10
2018-08-13T03:04:29.938Z,17.10
2018-08-13T03:06:58.190Z,17.20
2018-08-13T03:09:26.347Z,17.10
2018-08-13T03:11:54.586Z,17.10
2018-08-13T03:14:22.860Z,17.10
2018-08-13T03:16:51.589Z,17.10
2018-08-13T03:19:20.407Z,17.10
2018-08-13T03:21:49.545Z,17.10
2018-08-13T03:24:18.675Z,17.10
2018-08-13T03:26:47.685Z,17.10
2018-08-13T03:29:16.418Z,17.10
2018-08-13T03:31:44.957Z,17.10
2018-08-13T03:34:13.370Z,16.90
2018-08-13T03:36:41.954Z,16.80
2018-08-13T03:39:13.278Z,16.70
2018-08-13T03:41:42.523Z,16.60
2018-08-13T03:44:11.444Z,16.60
2018-08-13T03:46:40.487Z,16.60
2018-08-13T03:49:10.265Z,16.60
2018-08-13T03:51:38.597Z,16.60
2018-08-13T03:54:06.893Z,16.60
2018-08-13T03:56:35.189Z,16.50
2018-08-13T03:59:04.072Z,16.50
2018-08-13T04:01:32.585Z,16.40
2018-08-13T04:04:01.437Z,16.30
2018-08-13T04:06:31.293Z,16.20
2018-08-13T04:09:00.101Z,16.20
2018-08-13T04:11:28.197Z,16.20
2018-08-13T04:13:56.545Z,16.20
2018-08-13T04:16:25.188Z,16.20
2018-08-13T04:18:53.946Z,16.30
2018-08-13T04:21:22.657Z,16.30
2018-08-13T04:23:51.457Z,16.30
2018-08-13T04:26:19.797Z,16.30
2018-08-13T04:28:48.407Z,16.30
2018-08-13T04:31:16.606Z,16.40
2018-08-13T04:33:45.374Z,16.40
2018-08-13T04:36:14.320Z,16.50
2018-08-13T04:38:43.354Z,16.50
2018-08-13T04:41:12.045Z,16.50
2018-08-13T04:43:41.145Z,16.60
2018-08-13T04:46:09.894Z,16.60
2018-08-13T04:48:38.333Z,16.60
2018-08-13T04:51:06.512Z,16.60
2018-08-13T04:53:34.878Z,16.60
2018-08-13T04:56:04.175Z,16.70
2018-08-13T04:58:32.471Z,16.70
2018-08-13T05:01:00.825Z,16.70
2018-08-13T05:03:29.103Z,16.80
2018-08-13T05:05:58.909Z,16.80
2018-08-13T05:08:27.230Z,16.80
2018-08-13T05:10:56.040Z,16.80
2018-08-13T05:13:24.491Z,16.80
2018-08-13T05:15:53.981Z,16.90
2018-08-13T05:18:22.219Z,16.90
2018-08-13T05:20:50.437Z,16.90
2018-08-13T05:23:19.029Z,17.00
2018-08-13T05:25:47.755Z,17.00
2018-08-13T05:28:15.846Z,17.00
2018-08-13T05:30:45.471Z,17.10
2018-08-13T05:33:14.397Z,17.10
2018-08-13T05:35:43.161Z,17.20
2018-08-13T05:38:11.549Z,17.30
2018-08-13T05:40:41.837Z,17.30
2018-08-13T05:43:10.874Z,17.40
2018-08-13T05:45:39.300Z,17.50
2018-08-13T05:48:07.639Z,17.60
2018-08-13T05:50:36.941Z,17.70
2018-08-13T05:53:05.643Z,17.80
2018-08-13T05:55:34.488Z,17.80
2018-08-13T05:58:02.869Z,17.90
2018-08-13T06:00:31.038Z,17.90
2018-08-13T06:02:59.834Z,18.00
2018-08-13T06:05:27.909Z,18.00
2018-08-13T06:07:56.274Z,18.10
2018-08-13T06:10:24.674Z,18.10
2018-08-13T06:12:54.421Z,18.10
2018-08-13T06:15:23.470Z,18.20
2018-08-13T06:17:51.847Z,18.20
2018-08-13T06:20:20.065Z,18.20
2018-08-13T06:22:49.011Z,18.20
2018-08-13T06:25:17.818Z,18.30
2018-08-13T06:27:46.013Z,18.30
2018-08-13T06:30:15.393Z,18.20
2018-08-13T06:32:43.788Z,18.20
2018-08-13T06:35:13.211Z,18.30
2018-08-13T06:37:43.490Z,18.40
2018-08-13T06:40:12.969Z,18.50
2018-08-13T06:42:41.481Z,18.50
2018-08-13T06:45:10.530Z,18.70
2018-08-13T06:47:39.367Z,18.80
2018-08-13T06:50:09.325Z,18.90
2018-08-13T06:52:37.458Z,18.90
2018-08-13T06:55:06.885Z,18.90
2018-08-13T06:57:35.786Z,19.00
2018-08-13T07:00:07.684Z,19.00
2018-08-13T07:02:36.729Z,19.00
2018-08-13T07:05:05.818Z,18.90
2018-08-13T07:07:34.189Z,18.90
2018-08-13T07:10:02.985Z,19.00
2018-08-13T07:12:31.569Z,19.10
2018-08-13T07:14:59.931Z,19.30
2018-08-13T07:17:28.010Z,19.50
2018-08-13T07:19:56.284Z,19.70
2018-08-13T07:22:25.255Z,19.90
2018-08-13T07:24:53.433Z,19.90
2018-08-13T07:27:21.657Z,20.20
2018-08-13T07:29:50.946Z,20.10
2018-08-13T07:32:19.122Z,20.30
2018-08-13T07:34:47.365Z,20.50
2018-08-13T07:37:15.625Z,20.50
2018-08-13T07:39:44.957Z,20.60
2018-08-13T07:42:13.222Z,20.40
2018-08-13T07:44:41.489Z,20.30
2018-08-13T07:47:10.090Z,20.30
2018-08-13T07:49:38.945Z,20.30
2018-08-13T07:52:07.935Z,20.30
2018-08-13T07:54:36.076Z,20.40
2018-08-13T07:57:04.223Z,20.60
2018-08-13T07:59:33.133Z,20.70
2018-08-13T08:02:01.850Z,20.90
2018-08-13T08:04:30.167Z,20.90
2018-08-13T08:06:59.533Z,20.80
2018-08-13T08:09:28.079Z,20.80
2018-08-13T08:11:56.299Z,20.70
2018-08-13T08:14:26.004Z,20.70
2018-08-13T08:16:54.134Z,20.90
2018-08-13T08:19:22.473Z,21.10
2018-08-13T08:21:51.273Z,21.20
2018-08-13T08:24:20.156Z,21.20
2018-08-13T08:26:49.159Z,21.20
2018-08-13T08:29:17.439Z,21.50
2018-08-13T08:31:46.113Z,21.80
2018-08-13T08:34:14.993Z,22.50
2018-08-13T08:36:43.534Z,23.00
2018-08-13T08:39:15.645Z,23.10
2018-08-13T08:41:44.495Z,24.30
2018-08-13T08:44:24.769Z,24.70
2018-08-13T08:46:52.927Z,25.20
2018-08-13T08:49:21.491Z,25.80
2018-08-13T08:51:50.578Z,26.70
2018-08-13T08:54:18.981Z,26.80
2018-08-13T08:56:48.353Z,28.00
2018-08-13T08:59:17.325Z,28.10
2018-08-13T09:01:45.938Z,28.70
2018-08-13T09:04:14.133Z,29.70
2018-08-13T09:06:43.021Z,29.20
2018-08-13T09:09:13.140Z,29.20
2018-08-13T09:11:42.772Z,28.50
2018-08-13T09:14:11.253Z,27.80
2018-08-13T09:16:41.286Z,28.10
2018-08-13T09:19:21.086Z,28.20
2018-08-13T09:21:55.795Z,27.70
2018-08-13T09:24:35.967Z,27.80
2018-08-13T09:27:15.834Z,26.90
2018-08-13T09:29:55.861Z,26.30
2018-08-13T09:32:35.483Z,26.20
2018-08-13T09:35:39.370Z,26.60
2018-08-13T09:38:07.615Z,27.00
2018-08-13T09:40:36.835Z,26.30
2018-08-13T09:43:05.733Z,26.40
2018-08-13T09:45:33.885Z,26.50
2018-08-13T09:48:02.050Z,26.20
2018-08-13T09:50:31.089Z,25.90
2018-08-13T09:53:00.977Z,26.20
2018-08-13T09:55:30.840Z,26.40
2018-08-13T09:57:59.405Z,26.10
2018-08-13T10:00:35.585Z,25.70
2018-08-13T10:03:04.502Z,25.70
2018-08-13T10:05:32.872Z,26.10
2018-08-13T10:08:02.530Z,26.20
2018-08-13T10:10:30.762Z,26.40
2018-08-13T10:12:59.366Z,26.10
2018-08-13T10:15:27.973Z,26.40
2018-08-13T10:17:56.909Z,27.00
2018-08-13T10:20:25.003Z,27.50
2018-08-13T10:22:53.841Z,27.70
2018-08-13T10:25:21.972Z,28.40
2018-08-13T10:27:50.713Z,28.50
2018-08-13T10:30:18.868Z,27.90
2018-08-13T10:32:47.117Z,28.00
2018-08-13T10:35:15.538Z,28.30
2018-08-13T10:37:43.928Z,28.40
2018-08-13T10:40:15.818Z,28.30
2018-08-13T10:42:44.879Z,28.20
2018-08-13T10:45:13.230Z,28.30
2018-08-13T10:47:42.429Z,27.80
2018-08-13T10:50:12.657Z,27.80
2018-08-13T10:52:41.797Z,28.00
2018-08-13T10:55:11.567Z,28.60
2018-08-13T10:57:40.501Z,28.60
2018-08-13T11:00:12.263Z,28.00
2018-08-13T11:02:41.574Z,27.90
2018-08-13T11:05:12.249Z,28.30
2018-08-13T11:07:41.494Z,28.50
2018-08-13T11:10:11.637Z,28.50
2018-08-13T11:12:39.881Z,27.90
2018-08-13T11:15:11.767Z,27.90
2018-08-13T11:17:41.321Z,28.10
2018-08-13T11:20:10.319Z,28.60
2018-08-13T11:22:40.792Z,28.10
2018-08-13T11:25:11.434Z,28.10
2018-08-13T11:27:39.763Z,28.70
2018-08-13T11:30:10.359Z,29.40
2018-08-13T11:32:38.800Z,29.80
2018-08-13T11:35:07.949Z,29.00
2018-08-13T11:37:37.054Z,28.80
2018-08-13T11:40:13.730Z,28.60
2018-08-13T11:42:42.610Z,28.40
2018-08-13T11:45:11.305Z,28.20
2018-08-13T11:47:40.353Z,28.20
2018-08-13T11:50:10.568Z,28.00
2018-08-13T11:52:39.167Z,27.80
2018-08-13T11:55:08.738Z,27.80
2018-08-13T11:57:36.919Z,28.00
2018-08-13T12:00:07.341Z,28.40
2018-08-13T12:02:36.961Z,28.90
2018-08-13T12:05:08.160Z,29.10
2018-08-13T12:07:37.617Z,29.00
2018-08-13T12:10:07.250Z,28.90
2018-08-13T12:12:35.677Z,28.80
2018-08-13T12:15:05.398Z,28.70
2018-08-13T12:17:35.034Z,28.60
2018-08-13T12:20:04.918Z,28.60
2018-08-13T12:22:33.133Z,28.70
2018-08-13T12:25:02.332Z,28.80
2018-08-13T12:27:31.066Z,28.40
2018-08-13T12:30:01.129Z,28.40
2018-08-13T12:32:30.630Z,28.30
2018-08-13T12:34:58.805Z,28.10
2018-08-13T12:37:27.597Z,28.00
2018-08-13T12:39:55.893Z,27.90
2018-08-13T12:42:24.777Z,27.70
2018-08-13T12:44:53.250Z,27.60
2018-08-13T12:47:21.591Z,27.40
2018-08-13T12:49:49.770Z,27.10
2018-08-13T12:52:18.350Z,26.90
2018-08-13T12:54:47.028Z,26.70
2018-08-13T12:57:16.121Z,26.50
2018-08-13T12:59:44.557Z,26.40
2018-08-13T13:02:12.877Z,26.20
2018-08-13T13:04:41.138Z,26.00
2018-08-13T13:07:09.667Z,25.90
2018-08-13T13:09:38.219Z,25.70
2018-08-13T13:12:07.782Z,25.60
2018-08-13T13:14:36.006Z,25.60
2018-08-13T13:17:04.223Z,25.50
2018-08-13T13:19:33.286Z,25.40
2018-08-13T13:22:02.368Z,25.10
2018-08-13T13:24:30.769Z,24.80
2018-08-13T13:26:58.949Z,24.60
2018-08-13T13:29:27.609Z,24.50
2018-08-13T13:31:56.094Z,24.40
2018-08-13T13:34:25.479Z,24.30
2018-08-13T13:36:53.946Z,24.20
2018-08-13T13:39:22.262Z,24.00
2018-08-13T13:41:50.611Z,24.00
2018-08-13T13:44:19.129Z,23.90
2018-08-13T13:46:48.146Z,23.80
2018-08-13T13:49:16.348Z,23.70
2018-08-13T13:51:44.624Z,23.90
2018-08-13T13:54:12.774Z,23.80
2018-08-13T13:56:41.263Z,23.90
2018-08-13T13:59:10.120Z,24.00
2018-08-13T14:01:38.903Z,24.00
2018-08-13T14:04:07.511Z,23.90
2018-08-13T14:06:36.346Z,23.80
2018-08-13T14:09:07.665Z,23.70
2018-08-13T14:11:37.273Z,23.70
2018-08-13T14:14:07.128Z,23.60
2018-08-13T14:16:37.192Z,23.60
2018-08-13T14:19:06.492Z,23.70
2018-08-13T14:21:35.071Z,23.70
2018-08-13T14:24:03.630Z,23.70
2018-08-13T14:26:31.888Z,23.90
2018-08-13T14:29:00.770Z,24.00
2018-08-13T14:31:30.010Z,23.90
2018-08-13T14:33:58.791Z,23.80
2018-08-13T14:36:27.338Z,23.50
2018-08-13T14:38:55.485Z,23.70
2018-08-13T14:41:24.166Z,23.80
2018-08-13T14:43:53.110Z,23.90
2018-08-13T14:46:21.466Z,24.10
2018-08-13T14:48:50.295Z,24.10
2018-08-13T14:51:18.942Z,23.90
2018-08-13T14:53:47.279Z,23.80
2018-08-13T14:56:15.503Z,23.90
2018-08-13T14:58:43.745Z,23.70
2018-08-13T15:01:12.810Z,23.60
2018-08-13T15:03:41.352Z,23.40
2018-08-13T15:06:09.940Z,23.30
2018-08-13T15:08:38.246Z,23.20
2018-08-13T15:11:06.905Z,22.80
2018-08-13T15:13:35.350Z,22.50
2018-08-13T15:16:04.370Z,22.40
2018-08-13T15:18:33.474Z,22.20
2018-08-13T15:21:02.307Z,22.10
2018-08-13T15:23:32.321Z,22.10
2018-08-13T15:26:01.355Z,22.10
2018-08-13T15:28:29.966Z,22.00
2018-08-13T15:30:58.917Z,22.10
2018-08-13T15:33:27.463Z,22.00
2018-08-13T15:35:56.173Z,21.80
2018-08-13T15:38:24.493Z,21.70
2018-08-13T15:40:53.438Z,21.70
2018-08-13T15:43:22.477Z,21.70
2018-08-13T15:45:51.641Z,21.80
2018-08-13T15:48:19.860Z,21.90
2018-08-13T15:50:49.072Z,22.00
2018-08-13T15:53:17.821Z,22.00
2018-08-13T15:55:46.183Z,21.90
2018-08-13T15:58:15.191Z,21.80
2018-08-13T16:00:43.369Z,21.80
2018-08-13T16:03:12.025Z,21.60
2018-08-13T16:05:40.846Z,21.80
2018-08-13T16:08:09.365Z,21.80
2018-08-13T16:10:38.110Z,21.80
2018-08-13T16:13:06.273Z,21.80
2018-08-13T16:15:36.093Z,21.90
2018-08-13T16:18:04.818Z,22.00
2018-08-13T16:20:33.978Z,22.20
2018-08-13T16:23:02.749Z,22.10
2018-08-13T16:25:31.809Z,22.00
2018-08-13T16:27:59.930Z,21.80
2018-08-13T16:30:30.566Z,21.90
2018-08-13T16:32:59.342Z,21.90
2018-08-13T16:35:28.114Z,21.90
2018-08-13T16:37:56.987Z,21.80
2018-08-13T16:40:25.969Z,21.70
2018-08-13T16:42:55.229Z,21.50
2018-08-13T16:45:23.997Z,21.50
2018-08-13T16:47:52.813Z,21.50
2018-08-13T16:50:24.039Z,21.40
2018-08-13T16:52:53.354Z,21.40
2018-08-13T16:55:23.174Z,21.30
2018-08-13T16:57:51.428Z,21.40
2018-08-13T17:00:21.341Z,21.40
2018-08-13T17:02:50.363Z,21.40
2018-08-13T17:05:19.615Z,21.40
2018-08-13T17:07:48.957Z,21.40
2018-08-13T17:10:21.391Z,21.40
2018-08-13T17:12:50.665Z,21.30
2018-08-13T17:15:19.617Z,21.40
2018-08-13T17:17:49.632Z,21.40
2018-08-13T17:20:24.173Z,21.40
2018-08-13T17:22:53.147Z,21.40
2018-08-13T17:25:22.018Z,21.30
2018-08-13T17:27:52.837Z,21.30
2018-08-13T17:30:23.425Z,21.30
2018-08-13T17:32:53.265Z,21.30
2018-08-13T17:35:23.742Z,21.40
2018-08-13T17:37:52.457Z,21.30
2018-08-13T17:40:22.593Z,21.30
2018-08-13T17:42:51.657Z,21.30
2018-08-13T17:45:19.923Z,21.10
2018-08-13T17:47:48.977Z,21.10
2018-08-13T17:50:21.627Z,20.90
2018-08-13T17:52:50.553Z,20.70
2018-08-13T17:55:19.562Z,20.50
2018-08-13T17:57:48.405Z,20.30
2018-08-13T18:00:20.641Z,20.20
2018-08-13T18:02:49.991Z,19.90
2018-08-13T18:05:20.186Z,19.50
2018-08-13T18:07:48.674Z,19.40
2018-08-13T18:10:23.421Z,19.30
2018-08-13T18:12:51.803Z,19.20
2018-08-13T18:15:21.636Z,19.20
2018-08-13T18:17:50.737Z,19.00
2018-08-13T18:20:18.843Z,18.90
2018-08-13T18:22:47.557Z,18.70
2018-08-13T18:25:16.572Z,18.60
2018-08-13T18:27:46.444Z,18.40
2018-08-13T18:30:18.292Z,18.30
2018-08-13T18:32:47.014Z,17.90
2018-08-13T18:35:16.569Z,17.80
2018-08-13T18:37:45.017Z,17.70
2018-08-13T18:40:16.838Z,17.70
2018-08-13T18:42:46.037Z,17.70
2018-08-13T18:45:14.694Z,17.60
2018-08-13T18:47:43.380Z,17.60
2018-08-13T18:50:14.698Z,17.60
2018-08-13T18:52:43.511Z,17.50
2018-08-13T18:55:14.126Z,17.40
2018-08-13T18:57:42.912Z,17.40
2018-08-13T19:00:15.465Z,17.40
2018-08-13T19:02:43.674Z,17.40
2018-08-13T19:05:13.778Z,17.30
2018-08-13T19:07:43.637Z,17.40
2018-08-13T19:10:13.717Z,17.30
2018-08-13T19:12:42.333Z,17.30
2018-08-13T19:15:20.513Z,17.30
2018-08-13T19:17:49.067Z,17.30
2018-08-13T19:20:17.277Z,17.20
2018-08-13T19:22:46.245Z,17.00
2018-08-13T19:25:17.086Z,16.90
2018-08-13T19:27:46.229Z,16.80
2018-08-13T19:30:17.090Z,16.80
2018-08-13T19:32:47.175Z,16.80
2018-08-13T19:35:15.399Z,16.80
2018-08-13T19:37:45.737Z,16.80
2018-08-13T19:40:18.937Z,16.70
2018-08-13T19:42:49.726Z,16.80
2018-08-13T19:45:18.793Z,16.80
2018-08-13T19:47:47.816Z,16.80
2018-08-13T19:50:16.868Z,16.80
2018-08-13T19:52:46.249Z,16.80
2018-08-13T19:55:15.813Z,16.80
2018-08-13T19:57:44.474Z,16.80
2018-08-13T20:00:18.797Z,16.70
2018-08-13T20:02:48.274Z,16.60
2018-08-13T20:05:16.981Z,16.50
2018-08-13T20:07:47.505Z,16.40
2018-08-13T20:10:16.356Z,16.30
2018-08-13T20:12:45.496Z,16.30
2018-08-13T20:15:14.340Z,16.30
2018-08-13T20:17:42.842Z,16.30
2018-08-13T20:20:13.229Z,16.20
2018-08-13T20:22:42.678Z,16.20
2018-08-13T20:25:12.401Z,16.10
2018-08-13T20:27:40.677Z,16.10
2018-08-13T20:30:11.043Z,16.10
2018-08-13T20:32:39.693Z,16.10
2018-08-13T20:35:08.757Z,16.10
2018-08-13T20:37:36.857Z,16.00
2018-08-13T20:40:06.794Z,16.00
2018-08-13T20:42:34.905Z,16.00
2018-08-13T20:45:03.541Z,16.00
2018-08-13T20:47:32.560Z,15.90
2018-08-13T20:50:00.770Z,15.90
2018-08-13T20:52:29.721Z,15.90
2018-08-13T20:54:58.245Z,15.90
2018-08-13T20:57:26.734Z,15.90
2018-08-13T20:59:55.441Z,15.90
2018-08-13T21:02:23.620Z,15.90
2018-08-13T21:04:52.809Z,15.90
2018-08-13T21:07:21.093Z,15.90
2018-08-13T21:09:50.157Z,15.90
2018-08-13T21:12:19.496Z,15.90
2018-08-13T21:14:49.567Z,15.90
2018-08-13T21:17:18.262Z,15.90
2018-08-13T21:19:46.713Z,15.90
2018-08-13T21:22:14.869Z,15.90
2018-08-13T21:24:43.630Z,15.90
2018-08-13T21:27:12.753Z,15.90
2018-08-13T21:29:41.968Z,15.90
2018-08-13T21:32:10.931Z,15.80
2018-08-13T21:34:39.658Z,15.90
2018-08-13T21:37:07.834Z,15.90
2018-08-13T21:39:36.874Z,15.90
2018-08-13T21:42:05.645Z,15.80
2018-08-13T21:44:34.776Z,15.80
2018-08-13T21:47:03.613Z,15.80
2018-08-13T21:49:32.625Z,15.70
2018-08-13T21:52:00.807Z,15.70
2018-08-13T21:54:29.854Z,15.70
2018-08-13T21:56:59.602Z,15.70
2018-08-13T21:59:27.782Z,15.70
2018-08-13T22:01:56.957Z,15.60
2018-08-13T22:04:25.097Z,15.60
2018-08-13T22:06:53.253Z,15.60
2018-08-13T22:09:22.137Z,15.60
2018-08-13T22:11:50.841Z,15.70
2018-08-13T22:14:19.253Z,15.60
2018-08-13T22:16:47.458Z,15.70
2018-08-13T22:19:16.302Z,15.60
2018-08-13T22:21:44.970Z,15.60
2018-08-13T22:24:24.912Z,15.60
2018-08-13T22:26:54.781Z,15.60
2018-08-13T22:29:23.192Z,15.70
2018-08-13T22:31:51.841Z,15.70
2018-08-13T22:34:21.005Z,15.70
2018-08-13T22:36:50.118Z,15.70
2018-08-13T22:39:19.077Z,15.80
2018-08-13T22:41:47.582Z,15.80
2018-08-13T22:44:17.514Z,15.80
2018-08-13T22:46:46.093Z,15.80
2018-08-13T22:49:15.029Z,15.90
2018-08-13T22:51:44.353Z,15.80
2018-08-13T22:54:13.392Z,15.90
2018-08-13T22:56:42.933Z,15.80
2018-08-13T22:59:11.188Z,15.80
2018-08-13T23:01:39.995Z,15.80
2018-08-13T23:04:08.988Z,15.90
2018-08-13T23:06:37.533Z,16.00
2018-08-13T23:09:09.812Z,16.10
2018-08-13T23:11:38.022Z,16.00
2018-08-13T23:14:06.634Z,16.10
2018-08-13T23:16:35.661Z,16.10
2018-08-13T23:19:04.615Z,16.20
2018-08-13T23:21:34.177Z,16.20
2018-08-13T23:24:02.546Z,16.20
2018-08-13T23:26:31.237Z,16.20
2018-08-13T23:29:01.633Z,16.20
2018-08-13T23:31:31.345Z,16.20
2018-08-13T23:33:59.611Z,16.30
2018-08-13T23:36:28.105Z,16.30
2018-08-13T23:38:56.589Z,16.30
2018-08-13T23:41:25.765Z,16.30
2018-08-13T23:43:54.053Z,16.30
2018-08-13T23:46:22.629Z,16.30
2018-08-13T23:48:51.279Z,16.30
2018-08-13T23:51:20.538Z,16.30
2018-08-13T23:53:49.424Z,16.30
2018-08-13T23:56:18.548Z,16.30
2018-08-13T23:58:48.329Z,16.30
